Latest Weather Observations for Flinders Island Airport

IDT60801

Issued at 5:01 am EDT Thursday 11 February 2016 (issued every 30 minutes, with the page automatically refreshed every 10 minutes)

About weather observations | Map of weather stations | Latest weather observations for TAS | Other Formats
Station Details ID: 099005 Name: FLINDERS ISLAND AIRPORT Lat: -40.09 Lon: 148.00 Height: 9.0 m
Data from the previous 72 hours. | See also: Recent months at Flinders Island Airport
Date/Time
EDT
Temp
°C
App
Temp
°C
Dew
Point
Rel
Hum
%
Delta-T
°C
Wind Press
QNH
hPa
Press
MSL
hPa
Rain
since 9 am
mm
Dir
 
Spd
km/h
Gust
km/h
Spd
kts
Gust
kts
11/05:00am 18.8 15.7 15.7 82 1.8 WSW 26 32 14 17 1012.4 1012.4 0.0
11/04:30am 18.8 15.2 15.3 80 2.1 W 28 35 15 19 1012.3 1012.3 0.0
11/04:00am 18.5 15.5 14.8 79 2.2 W 24 30 13 16 1012.4 1012.4 0.0
11/03:48am 18.6 15.2 14.7 78 2.3 W 26 32 14 17 1012.4 1012.4 0.0
11/03:30am 18.7 14.4 14.4 76 2.5 W 30 35 16 19 1012.5 1012.5 0.0
11/03:27am 18.6 14.7 14.5 77 2.4 W 28 35 15 19 1012.5 1012.5 0.0
11/03:26am 18.6 14.7 14.5 77 2.4 W 28 35 15 19 1012.6 1012.6 0.0
11/03:01am 18.8 14.6 14.7 77 2.4 W 30 35 16 19 1012.8 1012.8 0.0
11/03:00am 18.8 14.6 14.7 77 2.4 W 30 35 16 19 1012.8 1012.8 0.0
11/02:59am 18.8 14.6 14.7 77 2.4 W 30 35 16 19 1012.8 1012.8 0.0
11/02:40am 18.8 14.5 14.3 75 2.6 W 30 35 16 19 1012.8 1012.8 0.0
11/02:30am 18.8 14.9 14.3 75 2.6 W 28 35 15 19 1013.0 1013.0 0.0
11/02:20am 19.0 14.7 14.3 74 2.7 W 30 37 16 20 1013.0 1013.0 0.0
11/02:00am 18.9 14.3 14.6 76 2.5 W 32 41 17 22 1013.1 1013.1 0.0
11/01:30am 19.0 14.2 14.5 75 2.6 W 33 39 18 21 1013.2 1013.2 0.0
11/01:11am 19.0 14.4 14.5 75 2.6 W 32 39 17 21 1013.2 1013.2 0.0
11/01:00am 18.9 14.2 14.8 77 2.4 W 33 39 18 21 1013.3 1013.3 0.0
11/12:30am 19.1 14.1 15.0 77 2.4 W 35 41 19 22 1013.2 1013.2 0.0
11/12:00am 19.1 14.0 14.8 76 2.5 W 35 41 19 22 1013.3 1013.3 0.0
 
Date/Time
EDT
Temp
°C
App
Temp
°C
Dew
Point
Rel
Hum
%
Delta-T
°C
Wind Press
QNH
hPa
Press
MSL
hPa
Rain
since 9 am
mm
Dir
 
Spd
km/h
Gust
km/h
Spd
kts
Gust
kts
10/11:30pm 19.2 14.1 14.9 76 2.5 W 35 39 19 21 1013.2 1013.2 0.0
10/11:00pm 19.2 14.7 14.9 76 2.5 W 32 37 17 20 1013.2 1013.2 0.0
10/10:30pm 19.0 15.0 15.3 79 2.2 W 30 35 16 19 1013.4 1013.4 0.0
10/10:00pm 18.9 15.3 15.2 79 2.2 W 28 35 15 19 1013.5 1013.5 0.0
10/09:30pm 18.9 14.8 14.8 77 2.4 W 30 39 16 21 1013.4 1013.4 0.0
10/09:00pm 18.9 15.4 14.6 76 2.5 W 26 35 14 19 1013.1 1013.1 0.0
10/08:30pm 19.0 15.0 15.1 78 2.3 W 30 37 16 20 1012.9 1012.9 0.0
10/08:15pm 19.1 15.0 15.0 77 2.4 W 30 37 16 20 1012.9 1012.9 0.0
10/08:00pm 19.3 14.8 15.0 76 2.5 W 32 41 17 22 1012.8 1012.8 0.0
10/07:30pm 19.6 15.1 15.0 75 2.7 W 32 39 17 21 1012.6 1012.6 0.0
10/07:00pm 19.9 15.4 14.9 73 2.9 W 32 39 17 21 1012.4 1012.4 0.0
10/06:30pm 20.0 15.3 14.4 70 3.3 W 32 37 17 20 1012.3 1012.3 0.0
10/06:00pm 20.2 15.5 14.3 69 3.4 W 32 37 17 20 1012.2 1012.2 0.0
10/05:54pm 20.3 15.7 14.7 70 3.3 W 32 39 17 21 1012.2 1012.2 0.0
10/05:30pm 20.5 15.8 14.4 68 3.6 W 32 39 17 21 1012.3 1012.3 0.0
10/05:12pm 20.4 15.8 14.7 70 3.3 WSW 32 39 17 21 1012.3 1012.3 0.0
10/05:00pm 21.1 16.8 14.5 66 3.9 WSW 30 37 16 20 1012.2 1012.2 0.0
10/04:30pm 21.2 16.6 14.6 66 3.9 W 32 37 17 20 1012.2 1012.2 0.0
10/04:05pm 21.4 17.3 13.8 62 4.4 W 28 32 15 17 1012.2 1012.2 0.0
10/04:00pm 21.0 16.4 12.4 58 4.8 W 28 32 15 17 1012.2 1012.2 0.0
10/03:42pm 21.2 16.6 13.4 61 4.5 W 30 33 16 18 1012.2 1012.2 0.0
10/03:30pm 21.4 17.3 12.8 58 4.9 W 26 32 14 17 1012.2 1012.2 0.0
10/03:00pm 21.8 18.0 13.7 60 4.7 W 26 33 14 18 1012.4 1012.4 0.0
10/02:30pm 21.4 18.0 13.6 61 4.5 WNW 24 32 13 17 1012.7 1012.7 0.0
10/02:00pm 20.5 17.8 13.0 62 4.3 W 19 28 10 15 1012.9 1012.9 0.0
10/01:35pm 21.1 17.7 13.8 63 4.2 W 24 32 13 17 1013.1 1013.1 0.0
10/01:30pm 20.9 17.5 13.6 63 4.2 W 24 32 13 17 1013.1 1013.1 0.0
10/01:00pm 20.3 17.6 14.7 70 3.3 W 22 28 12 15 1013.2 1013.2 0.0
10/12:48pm 20.3 16.9 14.7 70 3.3 WSW 26 32 14 17 1013.3 1013.3 0.0
10/12:30pm 20.1 16.8 14.9 72 3.0 W 26 32 14 17 1013.6 1013.6 0.0
10/12:00pm 20.2 16.7 15.6 75 2.7 W 28 32 15 17 1013.8 1013.8 0.0
10/11:37am 20.3 16.5 15.7 75 2.7 WSW 30 35 16 19 1013.9 1013.9 0.0
10/11:30am 20.3 16.6 15.9 76 2.6 W 30 33 16 18 1013.9 1013.9 0.0
10/11:23am 20.3 16.6 16.1 77 2.5 WSW 30 35 16 19 1014.0 1014.0 0.0
10/11:17am 20.4 17.2 16.2 77 2.5 WSW 28 33 15 18 1014.0 1014.0 0.0
10/11:00am 20.5 16.8 15.1 71 3.2 W 28 32 15 17 1014.0 1014.0 0.0
10/10:36am 20.7 17.6 15.5 72 3.1 W 26 30 14 16 1013.9 1013.9 0.0
10/10:30am 20.6 18.3 15.6 73 3.0 W 22 30 12 16 1013.9 1013.9 0.0
10/10:00am 20.8 19.1 15.8 73 3.0 W 19 24 10 13 1013.6 1013.6 0.0
10/09:57am 20.8 19.2 16.0 74 2.9 WNW 19 24 10 13 1013.6 1013.6 0.0
10/09:45am 20.5 18.9 15.9 75 2.7 WNW 19 26 10 14 1013.7 1013.7 0.0
10/09:30am 20.1 18.5 15.9 77 2.5 WNW 19 24 10 13 1013.7 1013.7 0.0
10/09:29am 20.1 18.8 15.9 77 2.5 WNW 17 24 9 13 1013.7 1013.7 0.0
10/09:06am 20.1 19.1 15.5 75 2.7 WNW 15 20 8 11 1013.7 1013.7 0.0
10/09:00am 20.0 19.2 16.0 78 2.4 W 15 20 8 11 1013.6 1013.6 0.0
10/08:55am 20.0 19.1 15.8 77 2.5 WNW 15 20 8 11 1013.7 1013.7 0.0
10/08:30am 19.4 18.3 15.3 77 2.4 W 15 19 8 10 1013.8 1013.8 0.0
10/08:00am 19.1 17.7 15.6 80 2.1 W 17 20 9 11 1013.7 1013.7 0.0
10/07:30am 18.3 16.4 15.2 82 1.8 W 19 26 10 14 1013.6 1013.6 0.0
10/07:00am 17.6 17.0 16.6 94 0.6 W 15 19 8 10 1013.5 1013.5 0.0
10/06:30am 16.5 16.1 16.3 99 0.1 WNW 13 17 7 9 1013.4 1013.4 0.0
10/06:00am 14.4 13.3 14.2 99 0.1 WNW 13 20 7 11 1013.3 1013.3 0.0
10/05:30am 13.6 13.3 13.4 99 0.1 NNE 7 9 4 5 1013.3 1013.3 0.0
10/05:00am 13.1 12.3 12.9 99 0.1 NE 9 9 5 5 1013.4 1013.4 0.0
10/04:30am 13.1 12.7 12.9 99 0.1 NE 7 7 4 4 1013.7 1013.7 0.0
10/04:15am 12.7 12.2 12.5 99 0.1 NNE 7 9 4 5 1013.7 1013.7 0.0
10/04:00am 12.3 11.6 12.0 98 0.2 NE 7 9 4 5 1013.8 1013.8 0.0
10/03:30am 12.0 11.4 11.7 98 0.2 N 6 7 3 4 1014.0 1014.0 0.0
10/03:00am 12.4 11.7 11.9 97 0.3 NE 7 9 4 5 1014.2 1014.2 0.0
10/02:30am 13.0 12.1 12.5 97 0.3 NE 9 9 5 5 1014.5 1014.5 0.0
10/02:00am 13.4 13.0 12.9 97 0.3 NE 7 9 4 5 1014.9 1014.9 0.0
10/01:30am 13.5 12.7 12.9 96 0.3 NE 9 9 5 5 1015.1 1015.1 0.0
10/01:09am 14.2 13.9 13.4 95 0.4 ENE 7 9 4 5 1015.4 1015.4 0.0
10/01:00am 14.6 14.1 13.8 95 0.4 ENE 9 11 5 6 1015.5 1015.5 0.0
10/12:30am 15.4 15.2 14.6 95 0.5 NE 9 9 5 5 1015.8 1015.8 0.0
10/12:29am 15.5 15.3 14.7 95 0.5 NE 9 9 5 5 1015.8 1015.8 0.0
10/12:00am 14.8 14.3 13.8 94 0.6 ENE 9 11 5 6 1016.2 1016.2 0.0
 
Date/Time
EDT
Temp
°C
App
Temp
°C
Dew
Point
Rel
Hum
%
Delta-T
°C
Wind Press
QNH
hPa
Press
MSL
hPa
Rain
since 9 am
mm
Dir
 
Spd
km/h
Gust
km/h
Spd
kts
Gust
kts
09/11:30pm 15.7 15.5 14.6 93 0.6 NNE 9 11 5 6 1016.6 1016.6 0.0
09/11:00pm 15.3 16.5 13.7 90 0.9 CALM 0 7 0 4 1016.9 1016.9 0.0
09/10:30pm 15.5 14.7 13.0 85 1.4 N 9 11 5 6 1017.2 1017.2 0.0
09/10:00pm 18.0 18.5 15.1 83 1.7 NW 6 7 3 4 1017.4 1017.4 0.0
09/09:30pm 18.2 17.8 15.3 83 1.7 NNE 11 13 6 7 1017.1 1017.1 0.0
09/09:00pm 18.6 18.1 14.9 79 2.2 N 11 15 6 8 1017.0 1017.0 0.0
09/08:30pm 19.6 18.3 14.8 74 2.8 NNE 15 19 8 10 1017.0 1017.0 0.0
09/08:00pm 20.3 18.7 14.9 71 3.2 NNE 17 20 9 11 1017.1 1017.1 0.0
09/07:30pm 21.1 19.0 14.7 67 3.8 NNE 19 24 10 13 1017.2 1017.2 0.0
09/07:00pm 22.1 19.8 14.7 63 4.4 NNE 20 26 11 14 1017.3 1017.3 0.0
09/06:30pm 22.5 20.3 14.4 60 4.8 NNE 19 28 10 15 1017.3 1017.3 0.0
09/06:00pm 23.2 21.3 14.2 57 5.3 N 17 26 9 14 1017.4 1017.4 0.0
09/05:30pm 23.5 19.9 14.2 56 5.5 NNE 26 33 14 18 1017.6 1017.6 0.0
09/05:00pm 24.1 21.7 14.5 55 5.7 N 20 32 11 17 1018.0 1017.9 0.0
09/04:30pm 24.4 23.4 14.5 54 5.9 NW 13 26 7 14 1018.3 1018.2 0.0
09/04:00pm 24.3 21.2 14.4 54 5.9 N 24 35 13 19 1018.6 1018.5 0.0
09/03:30pm 24.1 20.1 14.2 54 5.8 NNE 28 35 15 19 1018.9 1018.8 0.0
09/03:00pm 24.4 21.4 14.8 55 5.7 N 24 35 13 19 1019.2 1019.1 0.0
09/02:30pm 24.5 22.2 14.6 54 5.9 N 20 33 11 18 1019.4 1019.3 0.0
09/02:00pm 24.3 20.3 14.1 53 6.0 NE 28 37 15 20 1019.4 1019.3 0.0
09/01:30pm 24.1 21.3 15.3 58 5.3 NNE 24 35 13 19 1019.9 1019.8 0.0
09/01:00pm 24.6 22.6 15.5 57 5.5 NNE 20 32 11 17 1020.0 1019.9 0.0
09/12:30pm 24.3 22.3 15.0 56 5.6 N 19 28 10 15 1020.4 1020.3 0.0
09/12:00pm 23.9 22.3 15.1 58 5.2 N 17 24 9 13 1020.7 1020.6 0.0
09/11:30am 23.5 21.4 15.3 60 4.9 N 20 30 11 16 1021.2 1021.1 0.0
09/11:00am 22.3 20.0 15.6 66 4.0 NNE 22 30 12 16 1021.2 1021.1 0.0
09/10:30am 21.7 19.7 15.5 68 3.7 NNE 20 30 11 16 1021.1 1021.0 0.0
09/10:19am 22.1 20.6 16.8 72 3.2 NE 20 28 11 15 1021.1 1021.0 0.0
09/10:00am 21.3 20.6 16.5 74 2.9 N 15 24 8 13 1021.1 1021.0 0.0
09/09:30am 21.0 19.4 16.0 73 3.0 N 19 24 10 13 1021.1 1021.0 0.0
09/09:08am 21.0 20.5 17.0 78 2.4 N 15 22 8 12 1021.1 1021.0 0.0
09/09:00am 20.9 21.0 17.5 81 2.1 NNE 13 20 7 11 1021.1 1021.0 0.0
09/08:50am 20.1 20.1 17.3 84 1.7 NE 13 17 7 9 1021.0 1020.9 0.0
09/08:30am 19.4 19.5 17.5 89 1.2 NE 13 17 7 9 1021.1 1021.0 0.0
09/08:00am 18.4 19.0 17.6 95 0.5 ENE 11 15 6 8 1020.9 1020.8 0.0
09/07:33am 17.8 18.7 17.5 98 0.2 NE 9 11 5 6 1020.7 1020.6 0.0
09/07:30am 17.7 18.6 17.5 99 0.1 NE 9 11 5 6 1020.7 1020.6 0.0
09/07:00am 14.1 14.0 13.8 98 0.2 ENE 7 9 4 5 1020.4 1020.3 0.0
09/06:30am 14.7 14.8 14.4 98 0.2 E 7 7 4 4 1020.2 1020.1 0.0
09/06:00am 15.1 15.5 14.8 98 0.2 E 6 7 3 4 1019.9 1019.8 0.0
09/05:30am 15.3 15.6 15.0 98 0.2 ENE 7 9 4 5 1019.7 1019.6 0.0
09/05:00am 15.3 15.6 15.0 98 0.2 ENE 7 9 4 5 1019.5 1019.4 0.0
09/04:30am 14.7 14.4 14.4 98 0.2 ENE 9 9 5 5 1019.4 1019.3 0.0
09/04:00am 14.5 14.1 14.2 98 0.2 ENE 9 13 5 7 1019.4 1019.3 0.0
09/03:30am 14.6 14.3 14.3 98 0.2 ENE 9 9 5 5 1019.4 1019.3 0.0
09/03:00am 13.4 13.0 12.9 97 0.3 ENE 7 11 4 6 1019.6 1019.5 0.0
09/02:30am 14.5 14.5 14.2 98 0.2 ENE 7 9 4 5 1019.7 1019.6 0.0
09/02:00am 13.4 12.6 12.9 97 0.3 ENE 9 11 5 6 1019.7 1019.6 0.0
09/01:30am 14.1 13.2 13.6 97 0.3 NE 11 13 6 7 1019.9 1019.8 0.0
09/01:00am 14.9 13.5 14.4 97 0.3 NE 15 17 8 9 1020.0 1019.9 0.0
09/12:30am 14.4 13.5 13.8 96 0.3 ENE 11 15 6 8 1020.0 1019.9 0.0
09/12:00am 14.8 14.0 14.0 95 0.4 ENE 11 13 6 7 1019.9 1019.8 0.0
 
Date/Time
EDT
Temp
°C
App
Temp
°C
Dew
Point
Rel
Hum
%
Delta-T
°C
Wind Press
QNH
hPa
Press
MSL
hPa
Rain
since 9 am
mm
Dir
 
Spd
km/h
Gust
km/h
Spd
kts
Gust
kts
08/11:30pm 15.7 15.1 14.6 93 0.6 NE 11 13 6 7 1020.0 1019.9 0.0
08/11:00pm 16.1 15.3 15.1 94 0.6 ENE 13 15 7 8 1020.1 1020.0 0.0
08/10:30pm 16.2 15.8 15.1 93 0.6 NE 11 13 6 7 1020.2 1020.1 0.0
08/10:00pm 16.6 17.3 14.4 87 1.3 NNE 4 9 2 5 1020.3 1020.2 0.0
08/09:30pm 18.9 18.8 16.0 83 1.7 W 11 17 6 9 1020.1 1020.0 0.0
08/09:00pm 19.6 18.5 16.3 81 2.0 W 17 22 9 12 1019.7 1019.6 0.0
08/08:30pm 19.8 18.0 16.1 79 2.2 W 20 26 11 14 1019.2 1019.1 0.0
08/08:00pm 20.2 17.6 15.8 76 2.6 W 24 32 13 17 1019.0 1018.9 0.0
08/07:30pm 20.8 17.9 16.0 74 2.9 W 26 32 14 17 1018.7 1018.6 0.0
08/07:00pm 21.1 17.7 15.9 72 3.1 W 28 33 15 18 1018.5 1018.4 0.0
08/06:30pm 21.7 18.4 16.0 70 3.4 W 28 32 15 17 1018.3 1018.2 0.0
08/06:00pm 21.8 18.3 15.4 67 3.8 W 28 33 15 18 1018.1 1018.0 0.0
08/05:30pm 22.0 17.6 15.1 65 4.1 W 32 37 17 20 1018.3 1018.2 0.0
08/05:00pm 22.1 18.3 15.7 67 3.8 W 30 35 16 19 1018.5 1018.4 0.0
08/04:30pm 22.0 17.7 15.4 66 3.9 WSW 32 35 17 19 1018.6 1018.5 0.0
08/04:00pm 21.5 17.6 15.6 69 3.5 WSW 30 35 16 19 1018.6 1018.5 0.0
08/03:30pm 21.8 18.1 15.9 69 3.5 WSW 30 35 16 19 1018.7 1018.6 0.0
08/03:25pm 21.8 18.2 16.3 71 3.3 WSW 30 35 16 19 1018.7 1018.6 0.0
08/03:00pm 21.5 18.2 16.0 71 3.3 WSW 28 33 15 18 1018.7 1018.6 0.0
08/02:45pm 21.5 17.3 15.6 69 3.5 WSW 32 35 17 19 1018.7 1018.6 0.0
08/02:30pm 22.4 18.5 16.4 69 3.6 WSW 32 35 17 19 1018.7 1018.6 0.0
08/02:00pm 22.4 19.2 16.4 69 3.6 WSW 28 32 15 17 1018.8 1018.7 0.0
08/01:30pm 22.0 19.0 16.9 73 3.1 WSW 28 32 15 17 1018.9 1018.8 0.0
08/01:00pm 22.2 18.9 17.1 73 3.1 WSW 30 33 16 18 1018.8 1018.7 0.0
08/12:30pm 21.8 20.2 17.4 76 2.7 WSW 22 28 12 15 1019.0 1018.9 0.0
08/12:00pm 22.1 20.3 17.0 73 3.1 WSW 22 28 12 15 1019.1 1019.0 0.0
08/11:30am 22.0 20.6 16.9 73 3.1 WSW 20 26 11 14 1019.1 1019.0 0.0
08/11:00am 21.8 20.3 16.7 73 3.1 WSW 20 24 11 13 1019.1 1019.0 0.0
08/10:30am 21.6 19.3 16.6 73 3.0 WSW 24 28 13 15 1019.2 1019.1 0.0
08/10:00am 21.4 19.9 16.8 75 2.8 W 20 26 11 14 1019.0 1018.9 0.0
08/09:30am 21.2 20.1 17.2 78 2.4 W 19 26 10 14 1019.0 1018.9 0.0
08/09:00am 20.4 19.3 17.2 82 1.9 WSW 19 24 10 13 1018.9 1018.8 0.0
08/08:47am 20.6 19.6 17.6 83 1.8 W 19 26 10 14 1018.8 1018.7 0.0
08/08:30am 19.8 18.7 17.2 85 1.6 W 19 26 10 14 1018.7 1018.6 0.0
08/08:00am 19.4 19.8 19.1 98 0.2 W 15 19 8 10 1018.5 1018.4 0.0
08/07:30am 16.8 16.9 16.6 99 0.1 W 11 15 6 8 1018.2 1018.1 0.0
08/07:00am 14.8 15.0 14.6 99 0.1 N 7 11 4 6 1018.2 1018.1 0.0
08/06:41am 14.7 14.8 14.5 99 0.1 N 7 13 4 7 1018.2 1018.1 0.0
08/06:30am 14.5 14.2 14.3 99 0.1 NNE 9 13 5 7 1018.1 1018.0 0.0
08/06:21am 14.9 14.7 14.7 99 0.1 NE 9 11 5 6 1018.1 1018.0 0.0
08/06:00am 14.9 15.3 14.7 99 0.1 NNE 6 7 3 4 1017.8 1017.8 0.0
08/05:44am 15.1 14.9 14.8 98 0.2 NE 9 13 5 7 1017.7 1017.7 0.0
08/05:30am 15.0 14.8 14.7 98 0.2 ENE 9 11 5 6 1017.6 1017.6 0.0
08/05:29am 15.0 14.8 14.7 98 0.2 ENE 9 11 5 6 1017.6 1017.6 0.0

Other Formats:

Comma delimited format used in spreadsheet applications
http://www.bom.gov.au/fwo/IDT60801/IDT60801.94980.axf

JavaScript Object Notation format (JSON) in row-major order
http://www.bom.gov.au/fwo/IDT60801/IDT60801.94980.json